Time;durP1;ratioP1;P1;durP2;ratioP2;P2;SDS_P1;SDS_P2;PMS_P1;PMS_P2;Temp;Humidity;BMP_temperature;BMP_pressure;BME280_temperature;BME280_humidity;BME280_pressure;Samples;Min_cycle;Max_cycle;Signal;HPM_P1;HPM_P2
2022/04/13 00:01:54;;;;;;;51.83;25.80;;;3.70;99.90;;;;;;10371869;28;20386;-80
2022/04/13 00:06:55;;;;;;;53.97;26.40;;;3.70;99.90;;;;;;10370801;28;20043;-80
2022/04/13 00:11:55;;;;;;;55.00;26.77;;;3.50;99.90;;;;;;10358107;28;20034;-79
2022/04/13 00:16:56;;;;;;;48.83;25.50;;;3.50;99.90;;;;;;10358145;28;20500;-79
2022/04/13 00:21:56;;;;;;;47.27;26.30;;;3.50;99.90;;;;;;10370121;28;20485;-80
2022/04/13 00:26:57;;;;;;;46.93;23.30;;;3.40;99.90;;;;;;10370896;28;20421;-79
2022/04/13 00:31:58;;;;;;;50.50;23.83;;;3.40;99.90;;;;;;10370268;28;20034;-79
2022/04/13 00:36:59;;;;;;;47.23;24.63;;;3.30;99.90;;;;;;10369606;28;20045;-79
2022/04/13 00:42:06;;;;;;;43.10;23.80;;;3.30;99.90;;;;;;10370340;28;20057;-79
2022/04/13 00:47:07;;;;;;;43.87;23.57;;;3.20;99.90;;;;;;10368018;28;20436;-79
2022/04/13 00:52:11;;;;;;;49.23;24.23;;;3.10;99.90;;;;;;10369482;28;20084;-79
2022/04/13 00:57:15;;;;;;;44.23;23.50;;;3.10;99.90;;;;;;10369590;28;20022;-79
2022/04/13 01:02:16;;;;;;;40.27;22.03;;;3.00;99.90;;;;;;10369071;28;20038;-78
2022/04/13 01:07:18;;;;;;;47.30;22.30;;;3.00;99.90;;;;;;10368984;28;20781;-79
2022/04/13 01:12:18;;;;;;;43.10;22.17;;;3.00;99.90;;;;;;10367565;28;20034;-80
2022/04/13 01:17:19;;;;;;;42.23;21.93;;;3.00;99.90;;;;;;10350538;28;20038;-80
2022/04/13 01:22:21;;;;;;;41.77;21.40;;;3.10;99.90;;;;;;10368254;28;20092;-80
2022/04/13 01:27:22;;;;;;;41.83;21.00;;;3.20;99.90;;;;;;10368278;28;20056;-80
2022/04/13 01:32:23;;;;;;;44.03;22.70;;;3.20;99.90;;;;;;10368481;28;20030;-79
2022/04/13 01:37:23;;;;;;;44.43;22.23;;;3.20;99.90;;;;;;10367111;28;20538;-80
2022/04/13 01:42:24;;;;;;;41.00;22.37;;;3.10;99.90;;;;;;10367427;28;20076;-79
2022/04/13 01:47:24;;;;;;;42.53;23.70;;;3.00;99.90;;;;;;10366831;28;20106;-79
2022/04/13 01:52:25;;;;;;;49.70;24.43;;;3.00;99.90;;;;;;10368291;28;20394;-80
2022/04/13 01:57:26;;;;;;;41.27;22.53;;;2.90;99.90;;;;;;10367300;28;20044;-80
2022/04/13 02:02:26;;;;;;;43.70;23.90;;;3.00;99.90;;;;;;10366601;28;20502;-79
2022/04/13 02:07:28;;;;;;;42.67;24.30;;;3.00;99.90;;;;;;10367083;28;20037;-80
2022/04/13 02:12:28;;;;;;;43.53;25.00;;;2.90;99.90;;;;;;10345074;28;20742;-80
2022/04/13 02:17:29;;;;;;;46.93;25.50;;;2.90;99.90;;;;;;10338191;28;20041;-79
2022/04/13 02:22:29;;;;;;;39.87;22.97;;;3.00;99.90;;;;;;10367094;28;20034;-80
2022/04/13 02:27:30;;;;;;;43.30;24.57;;;3.00;99.90;;;;;;10347000;28;20133;-80
2022/04/13 02:32:31;;;;;;;42.40;24.17;;;2.90;99.90;;;;;;10359433;28;20049;-81
2022/04/13 02:37:32;;;;;;;45.03;25.07;;;2.90;99.90;;;;;;10366760;28;20026;-79
2022/04/13 02:42:33;;;;;;;43.23;23.37;;;2.80;99.90;;;;;;10367372;28;20034;-79
2022/04/13 02:47:35;;;;;;;43.83;24.03;;;2.80;99.90;;;;;;10365940;28;20092;-79
2022/04/13 02:52:37;;;;;;;41.83;23.50;;;2.80;99.90;;;;;;10327399;28;20034;-81
2022/04/13 02:57:37;;;;;;;43.07;25.27;;;2.80;99.90;;;;;;10366261;28;20054;-80
2022/04/13 03:02:41;;;;;;;42.57;24.00;;;2.80;99.90;;;;;;10361746;28;20090;-79
2022/04/13 03:07:42;;;;;;;41.03;23.77;;;2.80;99.90;;;;;;10368252;28;20050;-80
2022/04/13 03:12:43;;;;;;;41.47;23.87;;;2.80;99.90;;;;;;10372669;28;20045;-80
2022/04/13 03:17:43;;;;;;;42.70;23.70;;;2.80;99.90;;;;;;10373679;28;20465;-82
2022/04/13 03:22:50;;;;;;;40.80;22.60;;;2.70;99.90;;;;;;10371058;28;20458;-79
2022/04/13 03:27:50;;;;;;;40.50;22.60;;;2.80;99.90;;;;;;10371952;28;20064;-81
2022/04/13 03:32:51;;;;;;;44.10;21.67;;;2.80;99.90;;;;;;10369506;28;20030;-81
2022/04/13 03:37:52;;;;;;;34.70;21.33;;;2.90;99.90;;;;;;10354752;28;20030;-82
2022/04/13 03:42:52;;;;;;;36.43;21.60;;;2.90;99.90;;;;;;10371926;28;20473;-80
2022/04/13 03:47:53;;;;;;;39.90;21.17;;;2.90;99.90;;;;;;10372757;28;20457;-79
2022/04/13 03:52:53;;;;;;;39.83;22.30;;;2.90;99.90;;;;;;10370890;28;20034;-79
2022/04/13 03:57:54;;;;;;;35.63;21.37;;;2.80;99.90;;;;;;10372236;28;20381;-85
2022/04/13 04:02:55;;;;;;;35.70;22.00;;;2.70;99.90;;;;;;10351389;28;20172;-79
2022/04/13 04:07:56;;;;;;;37.10;21.83;;;2.70;99.90;;;;;;10379245;28;20044;-81
2022/04/13 04:12:57;;;;;;;42.47;22.27;;;2.70;99.90;;;;;;10382422;28;20030;-80
2022/04/13 04:17:57;;;;;;;41.87;21.13;;;2.70;99.90;;;;;;10370584;28;20048;-79
2022/04/13 04:22:58;;;;;;;42.43;22.23;;;2.80;99.90;;;;;;10356309;28;20052;-81
2022/04/13 04:27:58;;;;;;;41.50;22.30;;;2.80;99.90;;;;;;10358163;28;20556;-81
2022/04/13 04:32:59;;;;;;;40.80;22.17;;;2.80;99.90;;;;;;10353186;28;20133;-81
2022/04/13 04:38:00;;;;;;;41.20;22.10;;;2.80;99.90;;;;;;10356501;28;20034;-81
2022/04/13 04:43:01;;;;;;;37.60;21.27;;;2.80;99.90;;;;;;10370256;28;20393;-79
2022/04/13 04:48:04;;;;;;;36.77;22.57;;;2.90;99.90;;;;;;10360317;28;20044;-80
2022/04/13 04:53:05;;;;;;;37.30;22.03;;;2.90;99.90;;;;;;10363045;28;20038;-79
2022/04/13 04:58:09;;;;;;;35.00;20.20;;;3.00;99.90;;;;;;10343605;28;20150;-83
2022/04/13 05:03:10;;;;;;;37.57;19.87;;;3.10;99.90;;;;;;10338922;28;20014;-81
2022/04/13 05:08:13;;;;;;;36.70;20.00;;;3.30;99.90;;;;;;10353404;28;20026;-83
2022/04/13 05:13:14;;;;;;;36.50;19.37;;;3.40;99.90;;;;;;10364895;28;20109;-83
2022/04/13 05:18:15;;;;;;;34.93;19.83;;;3.50;99.90;;;;;;10366256;28;20145;-81
2022/04/13 05:23:17;;;;;;;34.93;19.40;;;3.60;99.90;;;;;;10364507;28;20046;-80
2022/04/13 05:28:18;;;;;;;34.90;19.37;;;3.80;99.90;;;;;;10367011;28;20046;-80
2022/04/13 05:33:18;;;;;;;33.97;19.57;;;4.00;99.90;;;;;;10367942;28;20354;-80
2022/04/13 05:38:19;;;;;;;37.13;19.50;;;4.20;99.90;;;;;;10367889;28;20033;-78
2022/04/13 05:43:20;;;;;;;32.60;19.03;;;4.50;99.90;;;;;;10366107;28;20018;-80
2022/04/13 05:48:20;;;;;;;39.33;19.43;;;4.70;99.90;;;;;;10367213;28;20037;-79
2022/04/13 05:53:22;;;;;;;38.10;19.77;;;4.80;99.90;;;;;;10366833;28;20022;-80
2022/04/13 05:58:26;;;;;;;42.13;20.73;;;5.10;99.80;;;;;;10368192;28;20022;-77
2022/04/13 06:03:27;;;;;;;45.37;22.57;;;5.40;99.40;;;;;;10367902;28;20061;-80
2022/04/13 06:08:28;;;;;;;35.27;18.93;;;5.70;98.00;;;;;;10349951;28;20133;-78
2022/04/13 06:13:28;;;;;;;41.03;20.40;;;6.00;97.00;;;;;;10367499;28;20046;-78
2022/04/13 06:18:29;;;;;;;25.47;14.77;;;6.40;96.00;;;;;;10367354;28;20025;-78
2022/04/13 06:23:29;;;;;;;23.17;12.27;;;6.70;95.60;;;;;;10367718;28;20405;-78
2022/04/13 06:28:30;;;;;;;19.07;10.63;;;7.00;93.90;;;;;;10367414;28;20049;-80
2022/04/13 06:33:31;;;;;;;26.30;12.73;;;7.50;91.90;;;;;;10367174;28;20030;-78
2022/04/13 06:38:32;;;;;;;18.33;10.00;;;7.70;91.20;;;;;;10366965;28;20025;-78
2022/04/13 06:43:33;;;;;;;16.57;9.27;;;8.10;90.70;;;;;;10368102;28;20030;-78
2022/04/13 06:48:34;;;;;;;17.80;9.70;;;8.40;89.40;;;;;;10375103;28;20036;-77
2022/04/13 06:53:34;;;;;;;14.10;8.57;;;8.60;88.90;;;;;;10374617;28;20037;-78
2022/04/13 06:58:35;;;;;;;13.83;8.50;;;9.00;85.50;;;;;;10374670;28;20034;-78
2022/04/13 07:03:36;;;;;;;15.47;8.80;;;9.20;84.70;;;;;;10374438;28;20034;-77
2022/04/13 07:08:37;;;;;;;19.40;9.03;;;9.60;83.60;;;;;;10373690;28;20037;-79
2022/04/13 07:13:38;;;;;;;13.97;8.23;;;9.80;84.00;;;;;;10374143;28;20037;-79
2022/04/13 07:18:38;;;;;;;20.43;8.83;;;10.10;81.90;;;;;;10373512;28;20514;-79
2022/04/13 07:23:39;;;;;;;20.13;8.93;;;10.40;81.60;;;;;;10373153;28;20070;-78
2022/04/13 07:28:41;;;;;;;17.70;9.68;;;10.70;81.10;;;;;;10372934;28;20096;-78
2022/04/13 07:33:42;;;;;;;21.85;10.30;;;11.00;80.30;;;;;;10372714;28;20044;-78
2022/04/13 07:38:42;;;;;;;15.73;8.80;;;11.30;77.00;;;;;;10373712;28;20537;-78
2022/04/13 07:43:47;;;;;;;13.52;8.38;;;11.50;77.90;;;;;;10372877;28;20060;-78
2022/04/13 07:48:47;;;;;;;14.35;8.13;;;11.80;77.50;;;;;;10372385;28;20426;-78
2022/04/13 07:53:48;;;;;;;17.10;8.35;;;12.10;76.20;;;;;;10372356;28;20037;-78
2022/04/13 07:58:49;;;;;;;12.57;7.35;;;12.50;76.40;;;;;;10371197;28;20030;-79
2022/04/13 08:03:50;;;;;;;16.70;7.07;;;12.80;73.00;;;;;;10371804;28;20033;-79
2022/04/13 08:08:50;;;;;;;17.20;7.03;;;13.20;73.80;;;;;;10371453;28;20034;-79
2022/04/13 08:13:51;;;;;;;13.20;7.55;;;13.50;71.70;;;;;;10371414;28;20527;-78
2022/04/13 08:18:51;;;;;;;13.63;7.43;;;13.90;71.30;;;;;;10370971;28;20401;-77
2022/04/13 08:23:52;;;;;;;14.45;7.97;;;14.10;71.80;;;;;;10371171;28;20049;-78
2022/04/13 08:28:53;;;;;;;12.93;7.15;;;14.40;72.60;;;;;;10370839;28;20537;-78
2022/04/13 08:33:53;;;;;;;10.48;6.13;;;14.70;69.30;;;;;;10370642;28;20030;-78
2022/04/13 08:38:54;;;;;;;12.43;6.57;;;14.90;70.00;;;;;;10370516;28;20057;-78
2022/04/13 08:44:11;;;;;;;11.23;6.97;;;15.10;69.60;;;;;;10370813;28;20478;-78
2022/04/13 08:49:14;;;;;;;13.48;7.03;;;15.20;65.20;;;;;;10370276;28;20026;-78
2022/04/13 08:54:28;;;;;;;9.95;5.90;;;15.50;64.80;;;;;;10369692;28;20026;-78
2022/04/13 08:59:51;;;;;;;11.20;6.20;;;15.80;64.50;;;;;;10370122;28;20030;-79
2022/04/13 09:04:59;;;;;;;8.98;5.97;;;16.10;66.30;;;;;;10369220;28;20018;-78
2022/04/13 09:10:02;;;;;;;11.63;6.38;;;16.40;62.00;;;;;;10369028;28;20022;-78
2022/04/13 09:15:04;;;;;;;13.52;7.45;;;16.60;63.90;;;;;;10369275;28;20040;-79
2022/04/13 09:20:06;;;;;;;11.00;6.28;;;16.80;63.80;;;;;;10368998;28;20034;-78
2022/04/13 09:25:08;;;;;;;14.70;7.60;;;16.70;61.20;;;;;;10368694;28;20049;-77
2022/04/13 09:30:10;;;;;;;9.05;5.82;;;17.00;64.00;;;;;;10368531;28;20529;-78
2022/04/13 09:35:11;;;;;;;10.00;6.28;;;17.20;61.50;;;;;;10368819;28;20290;-80
2022/04/13 09:40:38;;;;;;;12.95;5.88;;;17.50;63.70;;;;;;10368572;28;20036;-78
2022/04/13 09:45:42;;;;;;;9.30;5.82;;;17.70;60.20;;;;;;10368456;28;20030;-80
2022/04/13 09:50:45;;;;;;;10.75;6.22;;;18.00;60.30;;;;;;10367795;28;20549;-78
2022/04/13 09:55:53;;;;;;;15.80;11.00;;;18.20;61.10;;;;;;10368302;28;20104;-78
2022/04/13 10:00:55;;;;;;;12.95;7.57;;;18.00;57.50;;;;;;10349996;28;20022;-77
2022/04/13 10:05:57;;;;;;;13.10;7.43;;;18.10;59.40;;;;;;10368003;28;20425;-78
2022/04/13 10:10:59;;;;;;;12.40;7.22;;;18.10;60.50;;;;;;10367450;28;20026;-80
2022/04/13 10:16:03;;;;;;;11.68;6.05;;;18.20;59.40;;;;;;10367736;28;20042;-78
2022/04/13 10:21:04;;;;;;;11.77;6.88;;;18.30;59.40;;;;;;10372687;28;20543;-78
2022/04/13 10:26:09;;;;;;;12.27;6.60;;;18.50;58.60;;;;;;10375925;28;20053;-78
2022/04/13 10:31:10;;;;;;;11.40;6.55;;;18.40;54.50;;;;;;10375564;28;20113;-79
2022/04/13 10:36:11;;;;;;;11.15;6.35;;;17.90;54.60;;;;;;10375138;28;20029;-79
2022/04/13 10:41:16;;;;;;;14.02;7.65;;;17.80;55.00;;;;;;10374814;28;20097;-79
2022/04/13 10:46:20;;;;;;;10.60;6.80;;;17.90;58.80;;;;;;10375499;28;20497;-78
2022/04/13 10:51:25;;;;;;;9.55;6.20;;;18.40;57.50;;;;;;10367962;28;20046;-79
2022/04/13 10:56:30;;;;;;;7.93;5.72;;;18.60;58.20;;;;;;10365019;28;20402;-79
2022/04/13 11:01:52;;;;;;;9.97;6.20;;;18.60;54.80;;;;;;10349573;28;20498;-79
2022/04/13 11:06:54;;;;;;;11.13;5.95;;;18.50;55.40;;;;;;10330867;28;20041;-79
2022/04/13 11:11:56;;;;;;;10.68;6.22;;;18.70;56.90;;;;;;10331266;28;20041;-79
2022/04/13 11:17:05;;;;;;;17.25;8.48;;;18.50;54.10;;;;;;10333570;28;20466;-81
2022/04/13 11:22:06;;;;;;;11.30;5.18;;;18.50;53.60;;;;;;10333296;28;20057;-78
2022/04/13 11:27:11;;;;;;;11.38;5.75;;;18.50;55.50;;;;;;10332780;28;20112;-79
2022/04/13 11:32:16;;;;;;;9.90;5.90;;;18.20;53.10;;;;;;10332474;28;20053;-80
2022/04/13 11:37:18;;;;;;;8.98;5.60;;;18.00;54.70;;;;;;10331872;28;20030;-79
2022/04/13 11:42:27;;;;;;;11.02;5.68;;;18.10;54.30;;;;;;10332287;28;20031;-81
2022/04/13 11:47:40;;;;;;;9.23;5.10;;;18.30;55.70;;;;;;10331920;28;20042;-78
2022/04/13 11:52:55;;;;;;;7.75;4.88;;;18.50;52.10;;;;;;10332259;28;20154;-78
2022/04/13 11:58:04;;;;;;;8.95;5.45;;;18.80;56.20;;;;;;10356286;28;20041;-79
2022/04/13 12:03:12;;;;;;;10.68;6.70;;;19.20;55.00;;;;;;10371998;28;20029;-77
2022/04/13 12:08:18;;;;;;;9.80;5.50;;;19.50;53.30;;;;;;10371250;28;20046;-78
2022/04/13 12:13:19;;;;;;;13.45;5.80;;;19.80;56.40;;;;;;10371497;28;20041;-78
2022/04/13 12:18:22;;;;;;;9.20;5.60;;;20.10;54.90;;;;;;10371727;28;20033;-80
2022/04/13 12:23:27;;;;;;;9.90;5.90;;;20.20;54.90;;;;;;10348808;28;20133;-79
2022/04/13 12:28:28;;;;;;;11.85;5.80;;;20.20;51.40;;;;;;10355098;28;20030;-81
2022/04/13 12:33:29;;;;;;;22.60;14.52;;;19.90;53.30;;;;;;10355876;28;20383;-79
2022/04/13 12:38:33;;;;;;;14.43;6.15;;;19.80;50.40;;;;;;10353773;28;20025;-79
2022/04/13 12:43:35;;;;;;;11.52;6.68;;;20.20;55.00;;;;;;10362303;28;20026;-79
2022/04/13 12:48:36;;;;;;;9.73;5.70;;;20.20;50.40;;;;;;10360699;28;20045;-80
2022/04/13 12:53:41;;;;;;;7.80;5.40;;;19.90;54.30;;;;;;10363013;28;20049;-79
2022/04/13 12:58:42;;;;;;;8.50;5.50;;;19.90;53.30;;;;;;10361463;28;20029;-80
2022/04/13 13:03:43;;;;;;;8.20;5.55;;;19.80;54.80;;;;;;10369386;28;20030;-80
2022/04/13 13:08:51;;;;;;;8.65;5.55;;;19.90;54.20;;;;;;10359880;28;20030;-78
2022/04/13 13:13:52;;;;;;;7.53;5.30;;;20.10;54.00;;;;;;10337884;28;20034;-79
2022/04/13 13:19:17;;;;;;;12.05;5.72;;;19.80;54.10;;;;;;10347965;28;20029;-79
2022/04/13 13:24:27;;;;;;;10.30;5.50;;;19.80;50.20;;;;;;10363946;28;20077;-78
2022/04/13 13:29:27;;;;;;;8.77;5.38;;;19.60;50.70;;;;;;10364904;28;20026;-80
2022/04/13 13:34:28;;;;;;;11.13;6.65;;;19.10;52.20;;;;;;10368765;28;20025;-77
2022/04/13 13:39:29;;;;;;;7.40;5.38;;;19.10;51.10;;;;;;10348630;28;20041;-79
2022/04/13 13:44:31;;;;;;;10.77;6.10;;;19.00;52.70;;;;;;10349405;28;20038;-79
2022/04/13 13:49:32;;;;;;;10.23;6.13;;;19.00;53.30;;;;;;10342194;28;20121;-78
2022/04/13 13:54:35;;;;;;;12.23;7.88;;;18.90;54.90;;;;;;10343849;28;20112;-78
2022/04/13 13:59:35;;;;;;;18.15;13.60;;;18.90;55.60;;;;;;10352715;28;20026;-80
2022/04/13 14:04:36;;;;;;;274.63;202.25;;;18.80;55.80;;;;;;10360083;28;20046;-78
2022/04/13 14:09:37;;;;;;;15.82;10.13;;;18.70;54.70;;;;;;10352446;28;20030;-79
2022/04/13 14:14:37;;;;;;;705.65;512.97;;;18.50;55.30;;;;;;10346699;28;20042;-80
2022/04/13 14:19:38;;;;;;;369.10;213.50;;;18.60;56.70;;;;;;10359559;28;20028;-79
2022/04/13 14:24:38;;;;;;;347.15;212.68;;;18.60;57.10;;;;;;10355730;28;20133;-80
2022/04/13 14:29:39;;;;;;;47.60;24.00;;;18.40;56.50;;;;;;10325719;28;20038;-79
2022/04/13 14:34:40;;;;;;;59.67;34.03;;;18.30;56.70;;;;;;10325925;28;20031;-79
2022/04/13 14:39:40;;;;;;;13.68;8.32;;;18.30;57.70;;;;;;10364753;28;20471;-80
2022/04/13 14:44:41;;;;;;;9.68;5.82;;;18.10;57.10;;;;;;10347652;28;20107;-78
2022/04/13 14:49:42;;;;;;;11.45;6.22;;;18.10;57.00;;;;;;10360627;28;20038;-79
2022/04/13 14:54:42;;;;;;;27.80;24.67;;;18.00;56.80;;;;;;10329819;28;20034;-79
2022/04/13 14:59:44;;;;;;;10.80;6.88;;;18.10;58.40;;;;;;10325409;28;20026;-79
2022/04/13 15:04:45;;;;;;;12.40;6.47;;;18.10;57.40;;;;;;10364585;28;20505;-80
2022/04/13 15:09:46;;;;;;;11.50;6.57;;;17.90;57.80;;;;;;10374020;28;20114;-78
2022/04/13 15:14:47;;;;;;;12.35;6.90;;;17.80;58.30;;;;;;10347771;28;20037;-79
2022/04/13 15:19:48;;;;;;;15.25;7.70;;;17.60;59.50;;;;;;10341401;28;20598;-78
2022/04/13 15:24:48;;;;;;;11.35;6.97;;;17.50;58.70;;;;;;10372409;28;20046;-79
2022/04/13 15:29:50;;;;;;;13.82;7.18;;;17.30;59.90;;;;;;10373147;28;20033;-79
2022/04/13 15:34:51;;;;;;;20.15;9.85;;;17.10;60.30;;;;;;10371454;28;20385;-79
2022/04/13 15:39:52;;;;;;;12.63;7.57;;;17.00;61.00;;;;;;10372457;28;20034;-79
2022/04/13 15:44:53;;;;;;;13.27;7.15;;;16.80;60.00;;;;;;10372332;28;20440;-80
2022/04/13 15:49:54;;;;;;;13.85;8.43;;;16.70;60.60;;;;;;10371751;28;20079;-78
2022/04/13 15:54:57;;;;;;;11.63;7.18;;;16.50;60.60;;;;;;10372088;28;20038;-81
2022/04/13 15:59:58;;;;;;;13.57;8.07;;;16.30;61.00;;;;;;10366079;28;20108;-80
2022/04/13 16:04:58;;;;;;;13.60;8.20;;;16.10;60.40;;;;;;10356922;28;20115;-80
2022/04/13 16:10:00;;;;;;;13.02;7.85;;;16.00;61.00;;;;;;10367709;28;20125;-79
2022/04/13 16:15:00;;;;;;;15.50;9.02;;;15.80;61.20;;;;;;10371071;28;20033;-78
2022/04/13 16:20:02;;;;;;;16.15;9.43;;;15.60;61.40;;;;;;10368233;28;20371;-78
2022/04/13 16:25:04;;;;;;;14.82;9.23;;;15.50;61.80;;;;;;10370269;28;20064;-78
2022/04/13 16:30:06;;;;;;;13.75;8.57;;;15.30;61.50;;;;;;10369720;28;20053;-78
2022/04/13 16:35:09;;;;;;;16.23;9.70;;;15.20;62.10;;;;;;10368523;28;20088;-78
2022/04/13 16:40:10;;;;;;;14.68;8.80;;;15.10;62.00;;;;;;10369367;28;20026;-78
2022/04/13 16:45:10;;;;;;;14.35;9.55;;;14.90;63.00;;;;;;10368988;28;20030;-79
2022/04/13 16:50:11;;;;;;;15.52;9.65;;;14.70;62.90;;;;;;10366787;28;20117;-80
2022/04/13 16:55:12;;;;;;;17.38;10.52;;;14.50;63.40;;;;;;10369392;28;20025;-78
2022/04/13 17:00:14;;;;;;;19.33;12.57;;;14.30;63.50;;;;;;10366020;28;20018;-81
2022/04/13 17:05:15;;;;;;;22.67;12.48;;;14.20;63.60;;;;;;10368412;28;20493;-79
2022/04/13 17:10:15;;;;;;;21.95;11.68;;;14.00;64.30;;;;;;10351737;28;20044;-79
2022/04/13 17:15:16;;;;;;;15.18;9.98;;;13.90;64.10;;;;;;10368238;28;20433;-80
2022/04/13 17:20:16;;;;;;;18.85;11.65;;;13.70;64.00;;;;;;10367523;28;20045;-79
2022/04/13 17:25:17;;;;;;;45.13;23.77;;;13.50;64.50;;;;;;10367116;28;20058;-82
2022/04/13 17:30:18;;;;;;;314.20;190.02;;;13.30;65.10;;;;;;10358032;28;20163;-81
2022/04/13 17:35:19;;;;;;;29.88;24.83;;;13.10;65.10;;;;;;10366926;28;20169;-79
2022/04/13 17:40:20;;;;;;;21.40;14.18;;;13.00;65.50;;;;;;10366674;28;20052;-80
2022/04/13 17:45:21;;;;;;;183.00;111.45;;;12.80;66.30;;;;;;10366095;28;20498;-78
2022/04/13 17:50:21;;;;;;;79.40;40.55;;;12.50;66.70;;;;;;10364191;28;20087;-79
2022/04/13 17:55:23;;;;;;;24.70;14.10;;;12.40;67.60;;;;;;10366443;28;20033;-80
2022/04/13 18:00:24;;;;;;;28.25;15.63;;;12.20;67.40;;;;;;10380766;23;20187;-78
2022/04/13 18:05:25;;;;;;;67.18;32.10;;;12.10;68.50;;;;;;10364717;28;20056;-80
2022/04/13 18:10:25;;;;;;;24.00;13.25;;;11.90;69.60;;;;;;10364062;28;20022;-78
2022/04/13 18:15:26;;;;;;;45.33;22.88;;;11.70;71.00;;;;;;10355966;28;20034;-80
2022/04/13 18:20:27;;;;;;;64.95;33.70;;;11.50;71.10;;;;;;10366846;28;20060;-79
2022/04/13 18:25:28;;;;;;;33.08;22.73;;;11.40;70.40;;;;;;10350300;28;20128;-80
2022/04/13 18:30:31;;;;;;;42.47;30.92;;;11.30;71.00;;;;;;10365063;28;20037;-83
2022/04/13 18:35:32;;;;;;;52.72;36.90;;;11.20;70.40;;;;;;10362174;28;20030;-82
2022/04/13 18:40:33;;;;;;;29.20;17.55;;;11.10;69.90;;;;;;10363076;28;20038;-81
2022/04/13 18:45:33;;;;;;;18.80;10.60;;;11.00;70.50;;;;;;10367896;28;20038;-81
2022/04/13 18:50:34;;;;;;;20.38;11.70;;;11.00;71.70;;;;;;10372721;28;20032;-80
2022/04/13 18:55:35;;;;;;;20.90;12.18;;;10.70;72.20;;;;;;10374437;28;20397;-80
2022/04/13 19:00:35;;;;;;;21.83;13.27;;;10.50;73.00;;;;;;10371686;28;20144;-80
2022/04/13 19:05:37;;;;;;;26.33;13.03;;;10.40;73.60;;;;;;10355581;28;20046;-78
2022/04/13 19:10:38;;;;;;;35.47;17.50;;;10.10;74.00;;;;;;10364563;28;20590;-82
2022/04/13 19:15:39;;;;;;;33.23;16.73;;;10.00;74.10;;;;;;10362931;28;20034;-79
2022/04/13 19:20:40;;;;;;;30.33;14.60;;;9.90;75.00;;;;;;10370709;28;20026;-81
2022/04/13 19:25:42;;;;;;;30.30;14.47;;;9.70;75.50;;;;;;10370366;28;20076;-79
2022/04/13 19:30:43;;;;;;;25.63;13.57;;;9.60;75.40;;;;;;10351767;28;20129;-80
2022/04/13 19:35:44;;;;;;;31.43;15.33;;;9.50;76.40;;;;;;10366827;28;20456;-79
2022/04/13 19:40:44;;;;;;;36.40;19.13;;;9.30;76.80;;;;;;10371417;28;20037;-79
2022/04/13 19:45:45;;;;;;;36.87;18.10;;;9.30;76.60;;;;;;10371339;28;20042;-78
2022/04/13 19:50:46;;;;;;;37.23;16.93;;;9.20;77.00;;;;;;10369018;28;20033;-78
2022/04/13 19:55:47;;;;;;;34.90;16.40;;;9.10;76.80;;;;;;10353225;28;20441;-80
2022/04/13 20:00:50;;;;;;;30.37;15.80;;;9.00;76.90;;;;;;10367307;28;20409;-79
2022/04/13 20:05:50;;;;;;;33.20;16.57;;;8.90;77.50;;;;;;10369465;28;20433;-82
2022/04/13 20:10:52;;;;;;;35.93;17.10;;;8.90;77.80;;;;;;10370852;28;20034;-79
2022/04/13 20:15:53;;;;;;;43.43;18.27;;;8.80;78.10;;;;;;10369573;28;20492;-79
2022/04/13 20:20:54;;;;;;;35.03;17.17;;;8.70;77.80;;;;;;10370639;28;20040;-79
2022/04/13 20:25:54;;;;;;;35.73;17.07;;;8.70;77.90;;;;;;10369458;28;20038;-79
2022/04/13 20:30:55;;;;;;;31.80;14.50;;;8.70;77.70;;;;;;10369040;28;20026;-80
2022/04/13 20:35:55;;;;;;;26.17;12.30;;;8.80;77.80;;;;;;10352141;28;20037;-79
2022/04/13 20:40:56;;;;;;;22.20;11.77;;;8.80;77.90;;;;;;10367868;28;20034;-80
2022/04/13 20:45:57;;;;;;;22.37;11.30;;;8.80;77.90;;;;;;10367106;28;20116;-79
2022/04/13 20:50:57;;;;;;;28.33;12.67;;;8.80;78.10;;;;;;10341529;28;20104;-80
2022/04/13 20:56:00;;;;;;;25.90;11.37;;;8.80;78.40;;;;;;10333163;28;20030;-80
2022/04/13 21:01:02;;;;;;;28.97;12.73;;;8.80;77.90;;;;;;10362456;28;20120;-80
2022/04/13 21:06:03;;;;;;;30.60;14.57;;;8.70;77.90;;;;;;10355210;28;20521;-80
2022/04/13 21:11:04;;;;;;;32.47;14.37;;;8.70;78.00;;;;;;10363040;28;20033;-80
2022/04/13 21:16:05;;;;;;;26.60;12.90;;;8.80;77.40;;;;;;10366135;28;20366;-81
2022/04/13 21:21:06;;;;;;;25.07;11.53;;;8.90;76.40;;;;;;10364328;28;20026;-80
2022/04/13 21:26:07;;;;;;;24.47;11.43;;;8.80;76.60;;;;;;10363882;28;20030;-80
2022/04/13 21:31:08;;;;;;;21.17;9.83;;;8.80;76.60;;;;;;10363269;28;20018;-80
2022/04/13 21:36:08;;;;;;;24.03;11.53;;;8.70;76.50;;;;;;10360301;28;20052;-80
2022/04/13 21:41:09;;;;;;;25.70;11.67;;;8.60;77.00;;;;;;10355017;28;20026;-80
2022/04/13 21:46:10;;;;;;;23.73;12.30;;;8.60;77.00;;;;;;10363490;28;20084;-79
2022/04/13 21:51:10;;;;;;;27.73;11.10;;;8.30;76.80;;;;;;10360420;28;20022;-81
2022/04/13 21:56:12;;;;;;;22.33;10.03;;;8.20;76.70;;;;;;10362471;28;20037;-80
2022/04/13 22:01:13;;;;;;;23.93;10.07;;;8.10;76.60;;;;;;10365809;28;20521;-80
2022/04/13 22:06:14;;;;;;;21.30;9.27;;;8.10;76.50;;;;;;10367792;28;20398;-80
2022/04/13 22:11:18;;;;;;;25.70;11.47;;;7.90;76.60;;;;;;10367177;28;20030;-80
2022/04/13 22:16:18;;;;;;;22.50;10.70;;;7.90;76.90;;;;;;10364315;28;20496;-80
2022/04/13 22:21:21;;;;;;;19.43;9.27;;;7.80;76.80;;;;;;10366663;28;20026;-80
2022/04/13 22:38:16;;;;;;;22.95;8.73;;;7.60;77.20;;;;;;10364583;28;20117;-80
2022/04/13 22:50:03;;;;;;;23.27;9.80;;;7.50;77.10;;;;;;10363499;28;20426;-79
2022/04/13 23:54:00;;;;;;;21.92;10.45;;;7.20;78.90;;;;;;10329734;28;20054;-80
2022/04/13 23:59:02;;;;;;;24.10;11.63;;;7.20;78.90;;;;;;10368444;28;20038;-80
